Time;durP1;ratioP1;P1;durP2;ratioP2;P2;SDS_P1;SDS_P2;PMS_P1;PMS_P2;Temp;Humidity;BMP_temperature;BMP_pressure;BME280_temperature;BME280_humidity;BME280_pressure;Samples;Min_cycle;Max_cycle;Signal;HPM_P1;HPM_P2
2021/12/15 00:01:00;;;;;;;154.50;40.00;;;;;;;;;;5097104;28;20027;-75
2021/12/15 00:03:26;;;;;;;83.20;34.38;;;;;;;;;;5108748;28;20028;-75
2021/12/15 00:05:52;;;;;;;228.73;49.45;;;;;;;;;;5086123;28;20123;-75
2021/12/15 00:08:18;;;;;;;98.68;35.40;;;;;;;;;;5108341;28;20197;-75
2021/12/15 00:10:47;;;;;;;72.72;33.03;;;;;;;;;;5108141;28;20039;-75
2021/12/15 00:13:14;;;;;;;96.60;38.60;;;;;;;;;;5107012;28;20065;-75
2021/12/15 00:15:41;;;;;;;105.72;37.38;;;;;;;;;;5106987;28;20043;-75
2021/12/15 00:18:07;;;;;;;102.90;39.28;;;;;;;;;;5107235;28;20521;-75
2021/12/15 00:20:34;;;;;;;155.27;50.50;;;;;;;;;;5105684;28;20050;-75
2021/12/15 00:23:00;;;;;;;85.57;35.75;;;;;;;;;;5088767;28;20061;-75
2021/12/15 00:25:28;;;;;;;202.82;48.05;;;;;;;;;;5107109;28;20042;-75
2021/12/15 00:27:54;;;;;;;106.43;35.13;;;;;;;;;;5107819;28;20046;-75
2021/12/15 00:30:21;;;;;;;196.05;52.60;;;;;;;;;;5106344;28;20028;-75
2021/12/15 00:32:47;;;;;;;111.40;41.03;;;;;;;;;;5108600;28;20035;-75
2021/12/15 00:35:13;;;;;;;113.10;38.25;;;;;;;;;;5106744;28;20059;-74
2021/12/15 00:37:39;;;;;;;96.43;36.28;;;;;;;;;;5107389;28;20039;-75
2021/12/15 00:40:06;;;;;;;193.93;47.00;;;;;;;;;;5106732;28;20030;-75
2021/12/15 00:42:32;;;;;;;92.80;34.17;;;;;;;;;;5107898;28;20084;-75
2021/12/15 00:44:58;;;;;;;158.05;40.40;;;;;;;;;;5106410;28;20027;-75
2021/12/15 00:47:24;;;;;;;213.38;47.30;;;;;;;;;;5103925;28;20044;-75
2021/12/15 00:49:51;;;;;;;139.55;39.17;;;;;;;;;;5106213;28;20031;-75
2021/12/15 00:52:17;;;;;;;90.85;35.08;;;;;;;;;;5096931;28;20501;-75
2021/12/15 00:54:43;;;;;;;86.63;30.70;;;;;;;;;;5106371;28;20412;-75
2021/12/15 00:57:09;;;;;;;125.95;36.08;;;;;;;;;;5106216;28;20428;-74
2021/12/15 00:59:35;;;;;;;218.38;41.70;;;;;;;;;;5107237;28;20031;-75
2021/12/15 01:02:02;;;;;;;70.65;29.13;;;;;;;;;;5105872;28;20092;-75
2021/12/15 01:04:30;;;;;;;90.93;32.80;;;;;;;;;;5096593;28;20028;-75
2021/12/15 01:06:57;;;;;;;84.18;29.92;;;;;;;;;;5105409;28;20152;-75
2021/12/15 01:09:31;;;;;;;348.33;52.15;;;;;;;;;;5106036;28;20072;-75
2021/12/15 01:19:54;;;;;;;65.78;25.92;;;;;;;;;;5096816;28;20035;-75
2021/12/15 01:22:25;;;;;;;74.63;27.73;;;;;;;;;;5076892;28;20059;-75
2021/12/15 01:24:52;;;;;;;270.67;49.60;;;;;;;;;;5105556;28;20035;-75
2021/12/15 01:27:19;;;;;;;167.52;44.15;;;;;;;;;;5105565;28;20478;-75
2021/12/15 01:29:45;;;;;;;149.57;44.65;;;;;;;;;;5105826;28;20028;-75
2021/12/15 01:32:11;;;;;;;139.73;41.72;;;;;;;;;;5104971;28;20482;-74
2021/12/15 01:34:37;;;;;;;331.02;60.28;;;;;;;;;;5104934;28;20072;-75
2021/12/15 01:37:03;;;;;;;386.25;62.53;;;;;;;;;;5086714;28;20361;-75
2021/12/15 01:39:29;;;;;;;286.95;57.75;;;;;;;;;;5105125;28;20108;-75
2021/12/15 01:41:56;;;;;;;115.63;40.72;;;;;;;;;;5086072;28;20038;-75
2021/12/15 01:46:57;;;;;;;109.30;39.42;;;;;;;;;;5104922;28;20602;-75
2021/12/15 01:49:43;;;;;;;220.32;47.60;;;;;;;;;;5088284;28;20112;-75
2021/12/15 01:52:12;;;;;;;164.80;49.38;;;;;;;;;;5095056;28;20050;-75
2021/12/15 01:54:40;;;;;;;167.85;45.67;;;;;;;;;;5105980;28;20061;-75
2021/12/15 01:57:07;;;;;;;170.80;46.28;;;;;;;;;;5104567;28;20114;-75
2021/12/15 01:59:34;;;;;;;143.30;45.03;;;;;;;;;;5104927;28;20032;-75
2021/12/15 02:02:00;;;;;;;104.25;37.60;;;;;;;;;;5104002;28;20032;-75
2021/12/15 02:04:26;;;;;;;175.00;49.50;;;;;;;;;;5104960;28;20787;-75
2021/12/15 02:06:54;;;;;;;131.40;46.88;;;;;;;;;;5102758;28;20118;-75
2021/12/15 02:12:17;;;;;;;175.18;49.92;;;;;;;;;;5085065;28;20047;-75
2021/12/15 02:14:43;;;;;;;255.55;59.17;;;;;;;;;;5103865;28;20050;-75
2021/12/15 02:17:09;;;;;;;271.15;63.13;;;;;;;;;;5103960;28;20039;-75
2021/12/15 02:19:35;;;;;;;199.95;51.15;;;;;;;;;;5105318;28;20035;-75
2021/12/15 02:22:02;;;;;;;116.13;41.03;;;;;;;;;;5106054;28;20513;-75
2021/12/15 02:24:30;;;;;;;140.32;42.05;;;;;;;;;;5094217;28;20533;-75
2021/12/15 02:26:59;;;;;;;139.20;44.58;;;;;;;;;;5105353;28;20049;-75
2021/12/15 02:29:29;;;;;;;114.82;41.20;;;;;;;;;;5103403;28;20042;-75
2021/12/15 02:39:37;;;;;;;97.05;33.55;;;;;;;;;;5095569;28;20042;-75
2021/12/15 02:42:04;;;;;;;133.65;42.45;;;;;;;;;;5104338;28;20470;-75
2021/12/15 02:44:30;;;;;;;100.70;35.40;;;;;;;;;;5091715;28;20156;-75
2021/12/15 02:46:56;;;;;;;368.45;58.58;;;;;;;;;;5104518;28;20492;-75
2021/12/15 02:49:26;;;;;;;262.98;48.13;;;;;;;;;;5103659;28;20380;-75
2021/12/15 02:51:53;;;;;;;162.73;39.83;;;;;;;;;;5106758;28;20463;-75
2021/12/15 02:54:20;;;;;;;217.80;43.58;;;;;;;;;;5104269;28;20044;-75
2021/12/15 02:56:48;;;;;;;334.20;55.17;;;;;;;;;;5097580;28;20031;-75
2021/12/15 02:59:16;;;;;;;230.13;52.08;;;;;;;;;;5094975;28;20024;-75
2021/12/15 03:07:16;;;;;;;170.90;37.08;;;;;;;;;;5101923;28;20287;-74
2021/12/15 03:17:43;;;;;;;78.43;30.80;;;;;;;;;;5098916;28;20509;-75
2021/12/15 03:20:10;;;;;;;271.67;42.70;;;;;;;;;;5104041;28;20039;-75
2021/12/15 03:22:37;;;;;;;143.52;32.80;;;;;;;;;;5079058;28;20398;-75
2021/12/15 03:25:03;;;;;;;309.52;44.63;;;;;;;;;;5105366;28;20227;-75
2021/12/15 03:33:27;;;;;;;214.65;39.22;;;;;;;;;;5094937;28;20151;-75
2021/12/15 03:36:12;;;;;;;99.10;29.95;;;;;;;;;;5044178;28;20037;-75
2021/12/15 03:38:38;;;;;;;269.50;46.47;;;;;;;;;;5037516;28;20047;-75
2021/12/15 03:41:06;;;;;;;189.75;40.28;;;;;;;;;;5073737;28;20044;-75
2021/12/15 03:43:33;;;;;;;152.25;37.00;;;;;;;;;;5089679;28;20044;-75
2021/12/15 03:46:01;;;;;;;134.55;34.63;;;;;;;;;;5088725;28;20032;-75
2021/12/15 03:48:29;;;;;;;97.78;34.42;;;;;;;;;;5108241;28;20110;-75
2021/12/15 03:50:56;;;;;;;74.13;27.75;;;;;;;;;;5107586;28;20468;-75
2021/12/15 03:53:23;;;;;;;93.32;30.77;;;;;;;;;;5088834;28;20051;-75
2021/12/15 03:55:49;;;;;;;157.10;38.75;;;;;;;;;;5106654;28;20744;-75
2021/12/15 03:58:16;;;;;;;119.07;33.92;;;;;;;;;;5108487;28;20480;-75
2021/12/15 04:00:47;;;;;;;73.22;29.20;;;;;;;;;;5107864;28;20020;-75
2021/12/15 04:03:20;;;;;;;104.60;35.25;;;;;;;;;;5084799;28;20130;-75
2021/12/15 04:05:46;;;;;;;270.10;45.80;;;;;;;;;;5097540;28;20054;-75
2021/12/15 04:08:13;;;;;;;169.20;39.70;;;;;;;;;;5108028;28;20397;-75
2021/12/15 04:10:39;;;;;;;81.80;27.73;;;;;;;;;;5109087;28;20563;-75
2021/12/15 04:13:05;;;;;;;121.05;34.97;;;;;;;;;;5107871;28;20577;-75
2021/12/15 04:15:42;;;;;;;76.43;29.52;;;;;;;;;;5108126;28;20040;-75
2021/12/15 04:18:09;;;;;;;83.10;30.02;;;;;;;;;;5105456;28;20031;-75
2021/12/15 04:20:36;;;;;;;197.05;40.63;;;;;;;;;;5098966;28;20292;-75
2021/12/15 04:23:03;;;;;;;243.55;44.65;;;;;;;;;;5099796;28;20443;-75
2021/12/15 04:25:31;;;;;;;91.95;31.88;;;;;;;;;;5106987;28;20359;-75
2021/12/15 04:28:12;;;;;;;94.82;36.40;;;;;;;;;;5096865;28;20031;-75
2021/12/15 04:30:44;;;;;;;102.97;32.95;;;;;;;;;;5099994;28;20115;-75
2021/12/15 04:33:13;;;;;;;107.25;28.27;;;;;;;;;;5106605;28;20540;-75
2021/12/15 04:35:40;;;;;;;259.40;55.08;;;;;;;;;;5107953;28;20035;-75
2021/12/15 04:38:06;;;;;;;121.15;52.00;;;;;;;;;;5091844;28;20040;-75
2021/12/15 04:40:33;;;;;;;236.40;76.38;;;;;;;;;;5104306;28;20030;-75
2021/12/15 04:42:59;;;;;;;154.05;59.55;;;;;;;;;;5087877;28;20525;-75
2021/12/15 04:45:26;;;;;;;82.50;36.92;;;;;;;;;;5087863;28;20428;-75
2021/12/15 04:47:52;;;;;;;112.68;32.70;;;;;;;;;;5106498;28;20031;-75
2021/12/15 04:50:23;;;;;;;177.43;40.17;;;;;;;;;;5107516;28;20043;-75
2021/12/15 04:52:50;;;;;;;106.28;35.72;;;;;;;;;;5107160;28;20038;-75
2021/12/15 04:55:16;;;;;;;122.30;34.85;;;;;;;;;;5106938;28;20051;-75
2021/12/15 04:57:42;;;;;;;240.23;40.60;;;;;;;;;;5106859;28;20032;-75
2021/12/15 05:00:11;;;;;;;204.75;43.58;;;;;;;;;;5083064;28;20123;-75
2021/12/15 05:02:37;;;;;;;110.63;35.75;;;;;;;;;;5096736;28;20123;-75
2021/12/15 05:05:04;;;;;;;82.65;31.27;;;;;;;;;;5106175;28;20036;-75
2021/12/15 05:07:30;;;;;;;92.85;33.65;;;;;;;;;;5102872;28;20035;-75
2021/12/15 05:09:59;;;;;;;86.38;31.65;;;;;;;;;;5101077;28;20043;-75
2021/12/15 05:12:25;;;;;;;90.10;33.60;;;;;;;;;;5104741;28;20027;-75
2021/12/15 05:14:51;;;;;;;107.85;33.67;;;;;;;;;;5105122;28;20051;-75
2021/12/15 05:17:17;;;;;;;72.18;27.60;;;;;;;;;;5105235;28;20036;-75
2021/12/15 05:19:45;;;;;;;80.53;30.67;;;;;;;;;;5105278;28;20124;-75
2021/12/15 05:22:13;;;;;;;73.85;27.85;;;;;;;;;;5098389;28;20023;-75
2021/12/15 05:24:40;;;;;;;160.38;34.03;;;;;;;;;;5101393;28;20031;-75
2021/12/15 05:27:09;;;;;;;107.15;34.58;;;;;;;;;;5102005;28;20032;-75
2021/12/15 05:29:35;;;;;;;82.13;30.23;;;;;;;;;;5086831;28;20040;-75
2021/12/15 05:32:02;;;;;;;87.50;32.80;;;;;;;;;;5106663;28;20504;-75
2021/12/15 05:34:28;;;;;;;88.90;33.08;;;;;;;;;;5105606;28;20067;-75
2021/12/15 05:36:55;;;;;;;93.78;36.08;;;;;;;;;;5106572;28;20032;-75
2021/12/15 05:39:21;;;;;;;163.80;42.20;;;;;;;;;;5104731;28;20143;-75
2021/12/15 05:41:47;;;;;;;92.85;33.83;;;;;;;;;;5099899;28;20073;-75
2021/12/15 05:44:14;;;;;;;177.48;47.17;;;;;;;;;;5105824;28;20410;-75
2021/12/15 05:46:40;;;;;;;108.88;34.08;;;;;;;;;;5096451;28;20032;-74
2021/12/15 05:49:06;;;;;;;112.72;36.38;;;;;;;;;;5106015;28;20044;-75
2021/12/15 05:51:32;;;;;;;81.85;30.55;;;;;;;;;;5105415;28;20070;-75
2021/12/15 05:53:58;;;;;;;77.05;29.60;;;;;;;;;;5106246;28;20031;-75
2021/12/15 05:56:24;;;;;;;114.82;34.42;;;;;;;;;;5104419;28;20058;-75
2021/12/15 05:58:50;;;;;;;130.63;34.85;;;;;;;;;;5105246;28;20031;-75
2021/12/15 06:01:17;;;;;;;95.20;32.97;;;;;;;;;;5105144;28;20076;-75
2021/12/15 06:03:44;;;;;;;104.50;31.13;;;;;;;;;;5105584;28;20028;-75
2021/12/15 06:06:10;;;;;;;82.18;30.65;;;;;;;;;;5099269;28;20426;-75
2021/12/15 06:08:36;;;;;;;99.47;30.65;;;;;;;;;;5105018;28;20060;-75
2021/12/15 06:11:02;;;;;;;112.32;32.85;;;;;;;;;;5103797;28;20062;-75
2021/12/15 06:13:29;;;;;;;106.13;33.00;;;;;;;;;;5103907;28;20042;-75
2021/12/15 06:15:56;;;;;;;176.45;41.83;;;;;;;;;;5098025;28;20146;-75
2021/12/15 06:18:23;;;;;;;138.40;38.42;;;;;;;;;;5084564;28;20047;-76
2021/12/15 06:20:50;;;;;;;108.57;33.70;;;;;;;;;;5103605;28;20030;-75
2021/12/15 06:23:20;;;;;;;83.80;29.35;;;;;;;;;;5083573;28;20382;-75
2021/12/15 06:25:51;;;;;;;115.85;33.97;;;;;;;;;;5101092;28;20023;-75
2021/12/15 06:28:18;;;;;;;98.35;31.50;;;;;;;;;;5081655;28;20077;-75
2021/12/15 06:30:44;;;;;;;92.40;31.02;;;;;;;;;;5103726;28;20433;-76
2021/12/15 06:33:11;;;;;;;101.53;33.88;;;;;;;;;;5103714;28;20390;-75
2021/12/15 06:35:38;;;;;;;93.22;31.60;;;;;;;;;;5099835;28;20039;-75
2021/12/15 06:38:05;;;;;;;86.68;29.30;;;;;;;;;;5096760;28;20144;-75
2021/12/15 06:40:31;;;;;;;86.20;28.98;;;;;;;;;;5102565;28;20825;-75
2021/12/15 06:42:57;;;;;;;100.25;32.10;;;;;;;;;;5096263;28;20477;-75
2021/12/15 06:45:31;;;;;;;216.82;46.83;;;;;;;;;;5081275;28;20480;-75
2021/12/15 06:58:57;;;;;;;82.03;30.92;;;;;;;;;;5102580;28;20125;-75
2021/12/15 07:01:23;;;;;;;93.95;34.58;;;;;;;;;;5085104;28;20059;-76
2021/12/15 07:03:50;;;;;;;86.20;31.50;;;;;;;;;;5086546;28;20550;-76
2021/12/15 07:06:16;;;;;;;85.38;30.70;;;;;;;;;;5083177;28;20031;-76
2021/12/15 07:08:42;;;;;;;166.40;45.20;;;;;;;;;;5106545;28;20389;-75
2021/12/15 07:11:08;;;;;;;112.32;36.17;;;;;;;;;;5097679;28;20036;-75
2021/12/15 07:13:34;;;;;;;112.38;37.45;;;;;;;;;;5089114;28;20039;-75
2021/12/15 07:16:04;;;;;;;87.32;33.35;;;;;;;;;;5087367;28;20043;-75
2021/12/15 07:18:42;;;;;;;81.15;30.35;;;;;;;;;;5088912;28;20066;-76
2021/12/15 07:21:11;;;;;;;120.50;35.15;;;;;;;;;;5105522;28;20801;-75
2021/12/15 07:23:37;;;;;;;119.55;34.63;;;;;;;;;;5106450;28;20123;-75
2021/12/15 07:26:04;;;;;;;81.03;29.90;;;;;;;;;;5089311;28;20028;-76
2021/12/15 07:28:30;;;;;;;81.70;27.08;;;;;;;;;;5103842;28;20036;-76
2021/12/15 07:30:56;;;;;;;90.40;31.52;;;;;;;;;;5086321;28;20035;-76
2021/12/15 07:33:23;;;;;;;77.45;29.45;;;;;;;;;;5102474;28;20385;-75
2021/12/15 07:35:49;;;;;;;104.28;36.08;;;;;;;;;;5094808;28;20470;-75
2021/12/15 07:38:15;;;;;;;118.80;37.75;;;;;;;;;;5103136;28;20031;-75
2021/12/15 07:40:41;;;;;;;139.05;39.65;;;;;;;;;;5106560;28;20034;-76
2021/12/15 07:43:14;;;;;;;96.18;31.65;;;;;;;;;;5100211;28;20466;-76
2021/12/15 07:45:42;;;;;;;76.95;30.20;;;;;;;;;;5098518;28;20028;-76
2021/12/15 07:48:09;;;;;;;106.43;32.72;;;;;;;;;;5085844;28;20413;-77
2021/12/15 07:50:36;;;;;;;71.45;28.02;;;;;;;;;;5105389;28;20035;-75
2021/12/15 07:53:02;;;;;;;78.47;28.33;;;;;;;;;;5102535;28;20148;-75
2021/12/15 07:55:29;;;;;;;113.43;33.75;;;;;;;;;;5103402;28;20473;-76
2021/12/15 07:57:56;;;;;;;75.03;26.00;;;;;;;;;;5087202;28;20045;-75
2021/12/15 08:00:23;;;;;;;134.10;34.72;;;;;;;;;;5088260;28;20376;-75
2021/12/15 08:02:50;;;;;;;96.75;33.03;;;;;;;;;;5103423;28;20063;-76
2021/12/15 08:05:16;;;;;;;77.63;29.38;;;;;;;;;;5088855;28;20247;-75
2021/12/15 08:07:42;;;;;;;103.35;31.55;;;;;;;;;;5088198;28;20038;-75
2021/12/15 08:10:10;;;;;;;86.85;29.27;;;;;;;;;;5088782;28;20265;-76
2021/12/15 08:12:37;;;;;;;90.38;32.17;;;;;;;;;;5099397;28;20399;-76
2021/12/15 08:15:06;;;;;;;118.97;35.17;;;;;;;;;;5087514;28;20043;-76
2021/12/15 08:17:32;;;;;;;108.07;36.10;;;;;;;;;;5106073;28;20377;-76
2021/12/15 08:19:58;;;;;;;105.20;40.42;;;;;;;;;;5105603;28;20478;-76
2021/12/15 08:22:24;;;;;;;118.80;39.90;;;;;;;;;;5087752;28;20043;-76
2021/12/15 08:24:50;;;;;;;108.65;38.83;;;;;;;;;;5086422;28;20024;-76
2021/12/15 08:27:16;;;;;;;69.18;30.15;;;;;;;;;;5089244;28;20477;-75
2021/12/15 08:29:42;;;;;;;70.47;28.65;;;;;;;;;;5100970;28;20034;-76
2021/12/15 08:32:08;;;;;;;92.38;34.17;;;;;;;;;;5102032;28;20040;-75
2021/12/15 08:34:34;;;;;;;77.70;32.85;;;;;;;;;;5106660;28;20378;-76
2021/12/15 08:37:00;;;;;;;74.38;32.55;;;;;;;;;;5107843;28;20394;-75
2021/12/15 08:39:26;;;;;;;79.28;33.20;;;;;;;;;;5101892;28;20046;-75
2021/12/15 08:41:53;;;;;;;68.32;30.13;;;;;;;;;;5105683;28;20034;-76
2021/12/15 08:44:19;;;;;;;116.13;38.13;;;;;;;;;;5103633;28;20032;-76
2021/12/15 08:46:47;;;;;;;68.63;30.17;;;;;;;;;;5099130;28;20039;-75
2021/12/15 08:49:16;;;;;;;80.18;31.55;;;;;;;;;;5086559;28;20020;-75
2021/12/15 08:51:42;;;;;;;83.70;34.95;;;;;;;;;;5104835;28;20461;-75
2021/12/15 08:54:11;;;;;;;75.00;31.23;;;;;;;;;;5083163;28;20023;-75
2021/12/15 08:56:38;;;;;;;62.28;27.95;;;;;;;;;;5102508;28;20672;-76
2021/12/15 08:59:05;;;;;;;68.28;30.02;;;;;;;;;;5103959;28;20102;-76
2021/12/15 09:01:31;;;;;;;74.22;32.13;;;;;;;;;;5100335;28;20036;-75
2021/12/15 09:03:58;;;;;;;79.90;32.50;;;;;;;;;;5107113;28;20030;-75
2021/12/15 09:06:24;;;;;;;76.35;30.85;;;;;;;;;;5086625;28;20036;-76
2021/12/15 09:08:50;;;;;;;78.35;32.92;;;;;;;;;;5101445;28;20821;-75
2021/12/15 09:11:18;;;;;;;73.72;33.47;;;;;;;;;;5090216;28;20609;-75
2021/12/15 09:13:47;;;;;;;92.28;36.33;;;;;;;;;;5097983;28;20491;-75
2021/12/15 09:16:13;;;;;;;102.60;35.28;;;;;;;;;;5102715;28;20372;-75
2021/12/15 09:18:41;;;;;;;82.68;34.45;;;;;;;;;;5100806;28;20070;-76
2021/12/15 09:21:08;;;;;;;96.00;35.45;;;;;;;;;;5099086;28;20039;-76
2021/12/15 09:23:34;;;;;;;64.53;28.65;;;;;;;;;;5105379;28;20036;-75
2021/12/15 09:26:01;;;;;;;68.90;27.35;;;;;;;;;;5086910;28;20043;-76
2021/12/15 09:28:29;;;;;;;76.45;31.45;;;;;;;;;;5100468;28;20138;-76
2021/12/15 09:30:56;;;;;;;61.92;28.90;;;;;;;;;;5103333;28;20038;-75
2021/12/15 09:33:26;;;;;;;97.30;34.67;;;;;;;;;;5099005;28;20133;-75
2021/12/15 09:35:52;;;;;;;72.78;29.25;;;;;;;;;;5082865;28;20032;-76
2021/12/15 09:38:19;;;;;;;74.95;28.48;;;;;;;;;;5099381;28;20382;-76
2021/12/15 09:40:47;;;;;;;88.68;29.17;;;;;;;;;;5089270;28;20038;-76
2021/12/15 09:43:13;;;;;;;69.82;27.13;;;;;;;;;;5103215;28;20490;-76
2021/12/15 10:10:41;;;;;;;63.47;26.13;;;;;;;;;;5102308;28;20138;-75
2021/12/15 10:18:04;;;;;;;36.40;17.23;;;;;;;;;;5100414;28;20077;-75
2021/12/15 10:20:32;;;;;;;30.88;14.48;;;;;;;;;;5099342;28;20025;-75
2021/12/15 10:23:02;;;;;;;40.58;17.60;;;;;;;;;;5103894;28;20031;-75
2021/12/15 10:25:30;;;;;;;36.63;17.42;;;;;;;;;;5098423;28;20063;-75
2021/12/15 10:28:08;;;;;;;37.45;18.92;;;;;;;;;;5100164;28;20164;-75
2021/12/15 10:30:39;;;;;;;52.53;22.05;;;;;;;;;;5086729;28;20032;-75
2021/12/15 10:33:07;;;;;;;49.80;24.05;;;;;;;;;;5101570;28;20089;-75
2021/12/15 10:35:33;;;;;;;34.83;17.00;;;;;;;;;;5097966;28;20327;-75
2021/12/15 10:38:17;;;;;;;36.35;17.90;;;;;;;;;;5104299;28;20116;-75
2021/12/15 10:40:44;;;;;;;33.53;16.83;;;;;;;;;;5103501;28;20022;-75
2021/12/15 10:43:11;;;;;;;38.03;16.67;;;;;;;;;;5105766;28;20106;-75
2021/12/15 10:45:42;;;;;;;31.63;15.48;;;;;;;;;;5107682;28;20419;-76
2021/12/15 10:48:14;;;;;;;32.05;15.07;;;;;;;;;;5098572;28;20118;-75
2021/12/15 10:50:41;;;;;;;29.23;15.32;;;;;;;;;;5104093;28;20489;-75
2021/12/15 10:53:07;;;;;;;31.15;16.77;;;;;;;;;;5101365;28;20089;-75
2021/12/15 10:55:35;;;;;;;33.90;15.30;;;;;;;;;;5099732;28;20498;-75
2021/12/15 10:58:02;;;;;;;30.27;14.90;;;;;;;;;;5103640;28;20467;-75
2021/12/15 11:00:36;;;;;;;29.65;15.63;;;;;;;;;;5105161;28;20035;-75
2021/12/15 11:03:15;;;;;;;32.25;15.73;;;;;;;;;;5106543;28;20027;-75
2021/12/15 11:05:41;;;;;;;32.28;16.35;;;;;;;;;;5102858;28;20035;-75
2021/12/15 11:08:07;;;;;;;30.83;15.38;;;;;;;;;;5087809;28;20028;-75
2021/12/15 11:10:34;;;;;;;27.77;15.82;;;;;;;;;;5101333;28;20038;-75
2021/12/15 11:13:11;;;;;;;30.85;15.55;;;;;;;;;;5083380;28;20039;-75
2021/12/15 11:15:43;;;;;;;27.70;15.65;;;;;;;;;;5105219;28;20073;-75
2021/12/15 11:18:13;;;;;;;24.25;13.55;;;;;;;;;;5108599;28;20045;-74
2021/12/15 11:20:40;;;;;;;31.17;16.13;;;;;;;;;;5099433;28;20035;-75
2021/12/15 11:23:06;;;;;;;30.80;15.18;;;;;;;;;;5099012;28;20036;-75
2021/12/15 11:25:35;;;;;;;31.38;17.70;;;;;;;;;;5102746;28;20035;-74
2021/12/15 11:28:03;;;;;;;46.20;24.52;;;;;;;;;;5101916;28;20063;-75
2021/12/15 11:30:35;;;;;;;42.83;24.70;;;;;;;;;;5103344;28;20383;-75
2021/12/15 11:33:04;;;;;;;33.72;20.25;;;;;;;;;;5104146;28;20107;-74
2021/12/15 11:35:33;;;;;;;44.35;26.15;;;;;;;;;;5104208;28;20035;-75
2021/12/15 11:38:08;;;;;;;34.47;18.73;;;;;;;;;;5103490;28;20438;-75
2021/12/15 11:40:48;;;;;;;33.55;20.73;;;;;;;;;;5105107;28;20035;-75
2021/12/15 11:43:27;;;;;;;37.70;22.95;;;;;;;;;;5098890;28;20028;-75
2021/12/15 11:45:53;;;;;;;35.97;23.52;;;;;;;;;;5102219;28;20944;-75
2021/12/15 11:48:21;;;;;;;39.70;21.98;;;;;;;;;;5095024;28;20036;-75
2021/12/15 11:50:49;;;;;;;40.88;26.13;;;;;;;;;;5102760;28;20036;-75
2021/12/15 11:53:24;;;;;;;36.10;21.77;;;;;;;;;;5088605;28;20038;-75
2021/12/15 11:55:50;;;;;;;24.95;15.35;;;;;;;;;;5104194;28;20054;-75
2021/12/15 11:58:16;;;;;;;34.22;20.98;;;;;;;;;;5101416;28;20085;-75
2021/12/15 12:00:42;;;;;;;28.52;17.55;;;;;;;;;;5087232;28;20740;-74
2021/12/15 12:03:13;;;;;;;42.63;25.02;;;;;;;;;;5102790;28;20039;-75
2021/12/15 12:05:40;;;;;;;49.15;28.45;;;;;;;;;;5094193;28;20034;-74
2021/12/15 12:08:07;;;;;;;43.45;28.45;;;;;;;;;;5103214;28;20097;-74
2021/12/15 12:10:47;;;;;;;44.00;26.60;;;;;;;;;;5102843;28;20035;-74
2021/12/15 12:13:19;;;;;;;33.95;21.00;;;;;;;;;;5080391;28;20382;-74
2021/12/15 12:15:47;;;;;;;36.10;19.80;;;;;;;;;;5101146;28;20498;-74
2021/12/15 12:18:15;;;;;;;31.23;16.83;;;;;;;;;;5099038;28;20042;-74
2021/12/15 12:20:43;;;;;;;33.70;18.73;;;;;;;;;;5107725;28;20026;-74
2021/12/15 12:23:10;;;;;;;37.75;20.80;;;;;;;;;;5085967;28;20056;-74
2021/12/15 12:25:41;;;;;;;39.67;22.63;;;;;;;;;;5102743;28;20265;-74
2021/12/15 12:28:09;;;;;;;36.93;20.67;;;;;;;;;;5081100;28;20438;-74
2021/12/15 12:30:38;;;;;;;36.00;21.38;;;;;;;;;;5100542;28;20281;-75
2021/12/15 12:33:08;;;;;;;36.63;21.25;;;;;;;;;;5102356;28;20105;-74
2021/12/15 12:35:35;;;;;;;51.58;29.70;;;;;;;;;;5101531;28;20412;-75
2021/12/15 12:38:05;;;;;;;36.00;17.88;;;;;;;;;;5103608;28;20042;-74
2021/12/15 12:40:33;;;;;;;37.25;20.00;;;;;;;;;;5103285;28;20057;-74
2021/12/15 12:42:59;;;;;;;40.15;22.50;;;;;;;;;;5104054;28;20036;-74
2021/12/15 12:45:34;;;;;;;34.17;17.40;;;;;;;;;;5098809;28;20434;-74
2021/12/15 12:48:29;;;;;;;34.92;18.67;;;;;;;;;;5103713;28;20040;-74
2021/12/15 12:57:54;;;;;;;29.38;16.75;;;;;;;;;;5100602;28;20024;-74
2021/12/15 12:59:38;;;;;;;41.90;26.02;;;;;;;;;;5104793;28;20488;-74
2021/12/15 13:02:10;;;;;;;37.83;23.95;;;;;;;;;;5095952;28;20496;-74
2021/12/15 13:04:41;;;;;;;37.00;21.00;;;;;;;;;;5101610;28;20465;-74
2021/12/15 13:07:07;;;;;;;32.95;20.40;;;;;;;;;;5099811;28;20473;-74
2021/12/15 13:10:03;;;;;;;27.63;15.75;;;;;;;;;;5101211;28;20032;-74
2021/12/15 13:12:30;;;;;;;23.95;14.18;;;;;;;;;;5091667;28;20737;-74
2021/12/15 13:14:57;;;;;;;25.33;14.43;;;;;;;;;;5105437;28;20263;-74
2021/12/15 13:17:26;;;;;;;25.70;15.70;;;;;;;;;;5105401;28;20084;-74
2021/12/15 13:19:53;;;;;;;36.03;20.35;;;;;;;;;;5098013;28;20020;-74
2021/12/15 13:30:33;;;;;;;28.45;15.30;;;;;;;;;;5102471;28;20096;-74
2021/12/15 13:33:11;;;;;;;31.20;17.00;;;;;;;;;;5081835;28;20673;-74
2021/12/15 13:35:43;;;;;;;28.08;16.17;;;;;;;;;;5101996;28;20536;-74
2021/12/15 13:38:09;;;;;;;28.75;15.45;;;;;;;;;;5083347;28;20038;-74
2021/12/15 13:40:56;;;;;;;27.40;14.70;;;;;;;;;;5105546;28;20055;-74
2021/12/15 13:43:32;;;;;;;26.58;14.45;;;;;;;;;;5104866;28;20032;-74
2021/12/15 13:45:58;;;;;;;25.15;14.27;;;;;;;;;;5099570;28;20031;-74
2021/12/15 13:48:43;;;;;;;30.70;15.07;;;;;;;;;;5086091;28;20039;-74
2021/12/15 13:51:09;;;;;;;26.30;14.70;;;;;;;;;;5098468;28;20035;-74
2021/12/15 13:53:35;;;;;;;31.17;16.83;;;;;;;;;;5081362;28;20066;-74
2021/12/15 13:56:01;;;;;;;30.25;17.42;;;;;;;;;;5095592;28;20031;-74
2021/12/15 13:58:31;;;;;;;32.35;17.50;;;;;;;;;;5100501;28;20126;-74
2021/12/15 14:01:00;;;;;;;44.47;23.40;;;;;;;;;;5096867;28;20048;-74
2021/12/15 14:03:29;;;;;;;53.38;25.63;;;;;;;;;;5101440;28;20128;-74
2021/12/15 14:05:59;;;;;;;60.25;33.30;;;;;;;;;;5100179;28;20467;-74
2021/12/15 14:08:27;;;;;;;42.00;25.10;;;;;;;;;;5101874;28;20024;-74
2021/12/15 14:10:59;;;;;;;35.03;20.48;;;;;;;;;;5102544;28;20478;-74
2021/12/15 14:13:37;;;;;;;28.92;15.98;;;;;;;;;;5098546;28;20038;-74
2021/12/15 14:16:03;;;;;;;29.45;17.02;;;;;;;;;;5093528;28;20394;-74
2021/12/15 14:18:31;;;;;;;31.70;17.25;;;;;;;;;;5100881;28;20104;-74
2021/12/15 14:20:57;;;;;;;35.70;17.27;;;;;;;;;;5096114;28;20055;-74
2021/12/15 14:23:25;;;;;;;34.85;18.15;;;;;;;;;;5099321;28;20088;-74
2021/12/15 14:25:51;;;;;;;27.35;16.80;;;;;;;;;;5100404;28;20039;-74
2021/12/15 14:28:17;;;;;;;28.50;15.10;;;;;;;;;;5083439;28;20039;-74
2021/12/15 14:30:45;;;;;;;29.58;14.73;;;;;;;;;;5100482;28;20040;-74
2021/12/15 14:33:17;;;;;;;31.65;18.05;;;;;;;;;;5099412;28;20534;-74
2021/12/15 14:35:43;;;;;;;32.90;18.52;;;;;;;;;;5102667;28;20483;-74
2021/12/15 14:38:09;;;;;;;32.63;16.95;;;;;;;;;;5100703;28;20038;-74
2021/12/15 14:40:36;;;;;;;33.13;18.73;;;;;;;;;;5101302;28;20469;-74
2021/12/15 14:43:02;;;;;;;32.40;17.73;;;;;;;;;;5105741;28;20378;-74
2021/12/15 14:45:28;;;;;;;31.83;16.65;;;;;;;;;;5099187;28;20071;-74
2021/12/15 14:47:54;;;;;;;26.10;15.00;;;;;;;;;;5095330;28;20177;-74
2021/12/15 14:50:21;;;;;;;52.00;31.95;;;;;;;;;;5095983;28;20040;-74
2021/12/15 14:52:51;;;;;;;35.35;22.13;;;;;;;;;;5084735;28;20035;-74
2021/12/15 14:55:23;;;;;;;39.40;22.25;;;;;;;;;;5082785;28;20036;-74
2021/12/15 14:57:49;;;;;;;26.23;14.47;;;;;;;;;;5087340;28;20134;-74
2021/12/15 15:00:15;;;;;;;28.90;15.63;;;;;;;;;;5084002;28;20771;-74
2021/12/15 15:02:43;;;;;;;32.67;15.38;;;;;;;;;;5095446;28;20024;-74
2021/12/15 15:05:15;;;;;;;28.08;16.98;;;;;;;;;;5099555;28;20127;-74
2021/12/15 15:07:42;;;;;;;34.17;18.43;;;;;;;;;;5099476;28;20038;-74
2021/12/15 15:10:11;;;;;;;34.78;20.10;;;;;;;;;;5097383;28;20036;-74
2021/12/15 15:12:39;;;;;;;46.47;29.88;;;;;;;;;;5089636;28;20512;-74
2021/12/15 15:15:06;;;;;;;43.90;26.55;;;;;;;;;;5101479;28;20075;-74
2021/12/15 15:17:35;;;;;;;41.88;23.95;;;;;;;;;;5098973;28;20126;-74
2021/12/15 15:20:12;;;;;;;36.60;19.83;;;;;;;;;;5095639;28;20322;-74
2021/12/15 15:22:38;;;;;;;35.55;17.80;;;;;;;;;;5092036;28;20047;-74
2021/12/15 15:25:05;;;;;;;29.88;17.83;;;;;;;;;;5099262;28;20477;-74
2021/12/15 15:27:32;;;;;;;31.83;16.55;;;;;;;;;;5104552;28;20046;-74
2021/12/15 15:30:01;;;;;;;33.50;18.00;;;;;;;;;;5103561;28;20031;-74
2021/12/15 15:32:29;;;;;;;30.63;17.15;;;;;;;;;;5108579;28;20096;-74
2021/12/15 15:35:01;;;;;;;36.13;20.02;;;;;;;;;;5101288;28;20042;-74
2021/12/15 15:37:31;;;;;;;38.35;20.77;;;;;;;;;;5096884;28;20040;-74
2021/12/15 15:40:18;;;;;;;37.72;20.27;;;;;;;;;;5089398;28;20043;-74
2021/12/15 15:42:45;;;;;;;43.33;22.58;;;;;;;;;;5106101;28;20516;-74
2021/12/15 15:45:29;;;;;;;40.63;23.83;;;;;;;;;;5087556;28;20042;-73
2021/12/15 15:47:56;;;;;;;36.05;18.05;;;;;;;;;;5105225;28;21037;-74
2021/12/15 15:50:23;;;;;;;34.00;18.92;;;;;;;;;;5104003;28;20446;-74
2021/12/15 15:52:50;;;;;;;32.42;17.83;;;;;;;;;;5106542;28;20024;-75
2021/12/15 15:55:17;;;;;;;40.33;22.48;;;;;;;;;;5100699;28;20044;-75